createdAt,value
2022-08-19T00:13:04.903Z,100
2022-08-19T00:28:20.842Z,100
2022-08-19T00:43:36.847Z,100
2022-08-19T00:58:53.779Z,100
2022-08-19T01:14:09.787Z,100
2022-08-19T01:29:26.726Z,100
2022-08-19T01:44:43.732Z,100
2022-08-19T02:00:00.662Z,100
2022-08-19T02:15:16.681Z,100
2022-08-19T02:30:32.603Z,100
2022-08-19T02:31:18.607Z,100
2022-08-19T02:45:50.621Z,100
2022-08-19T03:01:07.579Z,100
2022-08-19T03:16:23.521Z,100
2022-08-19T03:31:43.518Z,100
2022-08-19T03:46:55.475Z,100
2022-08-19T04:02:12.465Z,100
2022-08-19T04:17:29.406Z,100
2022-08-19T04:32:46.474Z,100
2022-08-19T04:48:26.802Z,100
2022-08-19T05:03:20.315Z,100
2022-08-19T05:18:36.285Z,100
2022-08-19T05:33:52.254Z,100
2022-08-19T05:49:08.232Z,100
2022-08-19T06:04:25.193Z,100
2022-08-19T06:19:42.161Z,100
2022-08-19T06:34:59.141Z,100
2022-08-19T06:50:15.106Z,100
2022-08-19T07:05:33.068Z,100
2022-08-19T07:20:48.053Z,100
2022-08-19T07:36:04.019Z,100
2022-08-19T07:51:36.604Z,100
2022-08-19T08:06:37.967Z,100
2022-08-19T08:21:54.955Z,100
2022-08-19T08:37:11.897Z,100
2022-08-19T08:52:32.205Z,100
2022-08-19T09:07:47.394Z,98
2022-08-19T09:23:00.825Z,97.5
2022-08-19T09:38:16.796Z,90
2022-08-19T09:53:33.780Z,93
2022-08-19T10:08:51.735Z,87.5
2022-08-19T10:24:09.417Z,84.5
2022-08-19T10:39:28.639Z,81.5
2022-08-19T10:54:40.637Z,72.5
2022-08-19T11:09:57.609Z,75.5
2022-08-19T11:25:13.576Z,76
2022-08-19T11:40:29.542Z,75
2022-08-19T11:55:46.507Z,68.5
2022-08-19T12:11:04.486Z,71
2022-08-19T12:26:21.402Z,59.5
2022-08-19T12:41:37.412Z,65
2022-08-19T12:56:53.342Z,72.5
2022-08-19T13:12:10.347Z,86.5
2022-08-19T13:27:26.285Z,96.5
2022-08-19T13:42:43.293Z,95
2022-08-19T13:58:00.227Z,90.5
2022-08-19T14:13:18.223Z,90
2022-08-19T14:28:34.170Z,87
2022-08-19T14:43:50.161Z,81
2022-08-19T14:59:06.100Z,82.5
2022-08-19T15:14:23.104Z,82.5
2022-08-19T15:29:39.036Z,85.5
2022-08-19T15:44:56.041Z,82
2022-08-19T16:00:09.737Z,80
2022-08-19T16:15:25.972Z,72
2022-08-19T16:30:41.906Z,68.5
2022-08-19T16:45:57.905Z,65.5
2022-08-19T17:01:15.892Z,63
2022-08-19T17:16:32.818Z,62
2022-08-19T17:31:48.810Z,66.5
2022-08-19T17:47:04.744Z,71
2022-08-19T18:02:22.718Z,71
2022-08-19T18:17:39.690Z,74
2022-08-19T18:32:56.645Z,74
2022-08-19T18:48:25.740Z,77
2022-08-19T19:03:29.585Z,78.5
2022-08-19T19:04:14.450Z,78.5
2022-08-19T19:18:46.563Z,81.5
2022-08-19T19:34:03.528Z,85
2022-08-19T19:49:20.503Z,88
2022-08-19T20:04:38.469Z,93
2022-08-19T20:19:54.428Z,95.5
2022-08-19T20:35:10.404Z,97
2022-08-19T20:50:30.032Z,97.5
2022-08-19T21:05:45.343Z,100
2022-08-19T21:21:02.306Z,100
2022-08-19T21:36:18.274Z,100
2022-08-19T21:51:34.286Z,100
2022-08-19T22:06:51.222Z,100
2022-08-19T22:22:07.220Z,100
2022-08-19T22:37:24.167Z,100
2022-08-19T22:52:41.166Z,100
2022-08-19T23:08:00.139Z,100
2022-08-19T23:23:17.108Z,100
2022-08-19T23:38:34.320Z,100
2022-08-19T23:53:50.046Z,100
